Time;durP1;ratioP1;P1;durP2;ratioP2;P2;SDS_P1;SDS_P2;PMS_P1;PMS_P2;Temp;Humidity;BMP_temperature;BMP_pressure;BME280_temperature;BME280_humidity;BME280_pressure;Samples;Min_cycle;Max_cycle;Signal;HPM_P1;HPM_P2
2021/03/10 05:00:44;;;;;;;9.10;7.25;;;2.50;99.90;;;;;;5699444;23;20238;-70
2021/03/10 05:03:10;;;;;;;12.27;8.70;;;2.40;99.90;;;;;;4914606;29;20712;-72
2021/03/10 05:05:36;;;;;;;9.85;7.57;;;2.40;99.90;;;;;;4915677;29;20210;-72
2021/03/10 05:08:03;;;;;;;9.88;7.70;;;2.40;99.90;;;;;;4915338;29;20333;-71
2021/03/10 05:10:29;;;;;;;7.93;7.13;;;2.30;99.90;;;;;;4902378;29;20283;-72
2021/03/10 05:12:55;;;;;;;9.60;6.75;;;2.30;99.90;;;;;;4906745;29;20214;-72
2021/03/10 05:15:22;;;;;;;9.75;6.60;;;2.20;99.90;;;;;;4899725;29;20223;-73
2021/03/10 05:17:49;;;;;;;8.77;7.72;;;2.20;99.90;;;;;;4905589;29;20226;-72
2021/03/10 05:20:15;;;;;;;8.00;7.05;;;2.20;99.90;;;;;;4913700;29;20204;-72
2021/03/10 05:22:41;;;;;;;10.70;6.95;;;2.10;99.90;;;;;;4914855;29;20199;-72
2021/03/10 05:25:10;;;;;;;12.73;8.27;;;2.10;99.90;;;;;;4914409;29;20299;-71
2021/03/10 05:27:36;;;;;;;10.85;8.35;;;2.00;99.90;;;;;;4909000;29;20207;-73
2021/03/10 05:30:06;;;;;;;9.15;7.32;;;1.90;99.90;;;;;;4915744;29;20545;-73
2021/03/10 05:32:32;;;;;;;11.25;7.60;;;1.90;99.90;;;;;;4908555;29;20548;-73
2021/03/10 05:34:59;;;;;;;13.38;8.27;;;1.80;99.90;;;;;;4916079;29;20657;-74
2021/03/10 05:37:26;;;;;;;11.10;8.18;;;1.80;99.90;;;;;;4914874;29;20243;-73
2021/03/10 05:39:52;;;;;;;13.18;8.07;;;1.80;99.90;;;;;;4915267;29;20668;-73
2021/03/10 05:42:18;;;;;;;14.05;7.25;;;1.70;99.90;;;;;;4914655;29;20290;-73
2021/03/10 05:44:48;;;;;;;11.88;8.50;;;1.70;99.90;;;;;;4915930;29;20374;-73
2021/03/10 05:47:15;;;;;;;11.82;9.35;;;1.70;99.90;;;;;;4918515;29;20198;-73
2021/03/10 05:49:41;;;;;;;7.40;6.30;;;1.70;99.90;;;;;;4919116;29;20688;-73
2021/03/10 05:52:09;;;;;;;9.00;6.75;;;1.60;99.90;;;;;;4918103;29;20302;-73
2021/03/10 05:54:37;;;;;;;10.68;7.00;;;1.60;99.90;;;;;;4918409;29;20388;-72
2021/03/10 05:57:06;;;;;;;8.98;6.88;;;1.60;99.90;;;;;;4918064;29;20321;-69
2021/03/10 05:59:32;;;;;;;8.73;7.20;;;1.60;99.90;;;;;;4917683;29;20218;-70
2021/03/10 06:01:58;;;;;;;9.75;7.80;;;1.70;99.90;;;;;;4918274;29;20246;-69
2021/03/10 06:04:24;;;;;;;9.45;7.82;;;1.70;99.90;;;;;;4917752;29;20206;-71
2021/03/10 06:06:51;;;;;;;14.48;7.85;;;1.70;99.90;;;;;;4919299;29;20645;-69
2021/03/10 06:09:20;;;;;;;13.10;8.25;;;1.70;99.90;;;;;;4917530;29;20213;-70
2021/03/10 06:11:55;;;;;;;9.35;8.38;;;1.70;99.90;;;;;;4899893;29;20705;-68
2021/03/10 06:14:22;;;;;;;13.00;8.90;;;1.80;99.90;;;;;;4914299;29;20657;-69
2021/03/10 06:16:59;;;;;;;9.13;7.75;;;1.80;99.90;;;;;;4899898;29;20231;-68
2021/03/10 06:19:25;;;;;;;9.85;7.90;;;1.90;99.90;;;;;;4914325;29;20576;-70
2021/03/10 06:21:51;;;;;;;9.70;7.45;;;1.90;99.90;;;;;;4918414;29;20230;-69
2021/03/10 06:24:19;;;;;;;11.10;7.45;;;2.00;99.90;;;;;;4917454;29;20210;-72
2021/03/10 06:26:53;;;;;;;10.27;6.57;;;2.00;99.90;;;;;;4900968;29;20200;-70
2021/03/10 06:29:20;;;;;;;11.30;7.47;;;2.10;99.90;;;;;;4915285;29;20470;-70
2021/03/10 06:31:46;;;;;;;8.82;6.95;;;2.10;99.90;;;;;;4917898;29;20249;-70
2021/03/10 06:34:14;;;;;;;9.52;6.85;;;2.20;99.90;;;;;;4917554;29;20729;-69
2021/03/10 06:36:41;;;;;;;10.07;8.35;;;2.30;99.90;;;;;;4917673;29;20226;-69
2021/03/10 06:39:11;;;;;;;12.90;7.47;;;2.40;99.90;;;;;;4917189;29;20243;-70
2021/03/10 06:41:39;;;;;;;14.95;7.20;;;2.50;99.90;;;;;;4917371;29;20242;-71
2021/03/10 06:44:16;;;;;;;8.10;6.72;;;2.60;99.90;;;;;;4917315;29;20293;-71
2021/03/10 06:46:51;;;;;;;8.23;7.43;;;2.70;99.90;;;;;;4917345;29;20282;-71
2021/03/10 06:49:17;;;;;;;10.25;6.72;;;2.80;99.90;;;;;;4917892;29;20225;-71
2021/03/10 06:51:51;;;;;;;10.10;7.05;;;2.80;99.90;;;;;;4904087;29;20291;-71
2021/03/10 06:54:17;;;;;;;8.00;7.25;;;2.80;99.90;;;;;;4898381;29;20334;-70
2021/03/10 06:56:45;;;;;;;7.20;6.60;;;2.90;99.90;;;;;;4912768;29;20219;-70
2021/03/10 06:59:11;;;;;;;7.57;6.88;;;3.00;99.90;;;;;;4904781;29;20572;-70
2021/03/10 07:01:39;;;;;;;7.30;6.55;;;3.00;99.90;;;;;;4899012;29;20239;-71
2021/03/10 07:04:07;;;;;;;7.28;6.35;;;3.00;99.90;;;;;;4909188;29;20675;-71
2021/03/10 07:06:34;;;;;;;8.10;7.30;;;3.10;99.90;;;;;;4911236;29;20289;-71
2021/03/10 07:09:02;;;;;;;9.15;6.68;;;3.10;99.90;;;;;;4916552;29;20206;-70
2021/03/10 07:11:28;;;;;;;10.15;7.28;;;3.10;99.90;;;;;;4917507;29;20218;-71
2021/03/10 07:13:56;;;;;;;8.73;7.15;;;3.10;99.90;;;;;;4908381;29;20214;-70
2021/03/10 07:16:23;;;;;;;9.88;6.03;;;3.20;99.90;;;;;;4898507;29;20231;-69
2021/03/10 07:18:50;;;;;;;7.38;5.88;;;3.20;99.90;;;;;;4907384;29;20644;-69
2021/03/10 07:21:25;;;;;;;7.68;6.75;;;3.10;99.90;;;;;;4898545;29;20322;-70
2021/03/10 07:23:54;;;;;;;6.93;4.82;;;3.20;99.90;;;;;;4914624;29;20211;-70
2021/03/10 07:26:21;;;;;;;8.43;6.40;;;3.10;99.90;;;;;;4898669;29;20211;-70
2021/03/10 07:28:51;;;;;;;7.43;6.55;;;3.10;99.90;;;;;;4915265;29;20230;-70
2021/03/10 07:31:20;;;;;;;6.30;4.80;;;3.10;99.90;;;;;;4917646;29;20234;-70
2021/03/10 07:33:54;;;;;;;10.10;6.75;;;3.20;99.90;;;;;;4914925;29;20724;-70
2021/03/10 07:36:32;;;;;;;8.23;7.05;;;3.30;99.90;;;;;;4913824;29;20231;-70
2021/03/10 07:38:59;;;;;;;9.68;7.20;;;3.40;99.90;;;;;;4915248;29;20595;-71
2021/03/10 07:41:33;;;;;;;8.70;6.78;;;3.50;99.90;;;;;;4912309;29;20226;-72
2021/03/10 07:44:00;;;;;;;9.43;7.38;;;3.40;99.90;;;;;;4915510;29;20646;-72
2021/03/10 07:46:29;;;;;;;7.93;6.55;;;3.40;99.90;;;;;;4915853;29;20343;-71
2021/03/10 07:48:56;;;;;;;8.65;5.95;;;3.30;99.90;;;;;;4915093;29;20228;-71
2021/03/10 07:51:28;;;;;;;12.45;8.27;;;3.50;99.90;;;;;;4912055;29;20258;-71
2021/03/10 07:53:55;;;;;;;8.68;7.43;;;3.50;99.90;;;;;;4925630;29;20214;-71
2021/03/10 07:56:29;;;;;;;9.35;7.43;;;3.60;99.90;;;;;;4919822;29;20225;-71
2021/03/10 07:59:07;;;;;;;5.93;5.40;;;3.70;99.90;;;;;;4915673;29;20210;-71
2021/03/10 08:01:35;;;;;;;10.05;6.53;;;3.80;99.90;;;;;;4915054;29;20234;-70
2021/03/10 08:04:11;;;;;;;8.98;8.07;;;3.80;99.90;;;;;;4915598;29;20241;-70
2021/03/10 08:06:42;;;;;;;11.63;8.32;;;3.90;99.90;;;;;;4911261;29;20232;-70
2021/03/10 08:09:08;;;;;;;9.88;7.97;;;4.00;99.90;;;;;;4910831;29;20222;-75
2021/03/10 08:11:37;;;;;;;11.13;8.57;;;4.00;99.90;;;;;;4914368;29;20230;-75
2021/03/10 08:14:04;;;;;;;12.75;8.52;;;4.10;99.90;;;;;;4913759;29;20207;-76
2021/03/10 08:16:40;;;;;;;10.27;8.02;;;4.20;99.90;;;;;;4915304;29;20230;-75
2021/03/10 08:19:07;;;;;;;9.05;8.15;;;4.30;99.90;;;;;;4907632;29;20213;-75
2021/03/10 08:21:34;;;;;;;11.25;9.02;;;4.40;99.90;;;;;;4911572;29;20230;-75
2021/03/10 08:24:00;;;;;;;12.18;9.00;;;4.40;99.90;;;;;;4910127;29;20281;-74
2021/03/10 08:26:27;;;;;;;13.23;9.20;;;4.40;99.90;;;;;;4914711;29;20209;-75
2021/03/10 08:28:53;;;;;;;9.70;8.07;;;4.50;99.90;;;;;;4914780;29;20218;-75
2021/03/10 08:31:19;;;;;;;11.30;8.70;;;4.50;99.90;;;;;;4914714;29;20230;-74
2021/03/10 08:33:47;;;;;;;11.43;8.88;;;4.50;99.90;;;;;;4911600;29;20569;-75
2021/03/10 08:36:15;;;;;;;15.38;11.30;;;4.50;99.90;;;;;;4915498;29;20580;-74
2021/03/10 08:38:42;;;;;;;14.25;10.73;;;4.60;99.90;;;;;;4903767;29;20199;-75
2021/03/10 08:41:09;;;;;;;20.55;11.25;;;4.80;99.90;;;;;;4914969;29;20234;-76
2021/03/10 08:43:35;;;;;;;18.05;11.85;;;4.80;99.90;;;;;;4911606;29;20203;-74
2021/03/10 08:46:02;;;;;;;9.52;7.28;;;4.90;99.90;;;;;;4897094;29;20207;-71
2021/03/10 08:48:32;;;;;;;11.00;7.88;;;5.00;99.90;;;;;;4911873;29;20206;-73
2021/03/10 08:51:01;;;;;;;12.40;9.38;;;4.90;99.90;;;;;;4915788;29;20767;-72
2021/03/10 08:53:28;;;;;;;8.30;7.35;;;4.90;99.90;;;;;;4914979;29;20301;-72
2021/03/10 08:56:04;;;;;;;9.73;7.10;;;4.90;99.90;;;;;;4916057;29;20210;-72
2021/03/10 08:58:31;;;;;;;17.85;10.43;;;5.00;99.90;;;;;;4915484;29;20692;-72
2021/03/10 09:00:57;;;;;;;19.10;12.32;;;5.10;99.90;;;;;;4915930;29;20345;-73
2021/03/10 09:03:24;;;;;;;19.13;13.18;;;5.20;99.90;;;;;;4915651;29;20640;-72
2021/03/10 09:05:52;;;;;;;16.70;11.82;;;5.40;99.90;;;;;;4915973;29;20226;-73
2021/03/10 09:08:22;;;;;;;22.63;15.05;;;5.50;99.90;;;;;;4914997;29;20225;-73
2021/03/10 09:10:51;;;;;;;40.80;21.88;;;5.60;99.90;;;;;;4915670;29;20231;-73
2021/03/10 09:13:19;;;;;;;21.15;13.07;;;5.70;99.90;;;;;;4915232;29;20349;-73
2021/03/10 09:15:45;;;;;;;19.10;13.20;;;5.70;99.90;;;;;;4910015;29;20199;-72
2021/03/10 09:18:12;;;;;;;19.58;12.27;;;5.80;99.90;;;;;;4909826;29;20590;-73
2021/03/10 09:20:39;;;;;;;24.33;15.55;;;5.90;99.90;;;;;;4918025;29;20290;-72
2021/03/10 09:23:06;;;;;;;22.08;13.73;;;5.90;99.90;;;;;;4926701;29;20217;-71
2021/03/10 09:25:34;;;;;;;23.90;16.33;;;6.10;99.90;;;;;;4924795;29;20206;-69
2021/03/10 09:28:09;;;;;;;19.05;12.35;;;6.20;99.90;;;;;;4918805;29;20229;-72
2021/03/10 09:30:38;;;;;;;43.63;28.48;;;6.30;99.90;;;;;;4918791;29;20588;-73
2021/03/10 09:33:05;;;;;;;24.23;16.15;;;6.20;99.90;;;;;;4918808;29;20308;-73
2021/03/10 09:35:34;;;;;;;35.53;22.30;;;6.20;99.90;;;;;;4919507;29;20254;-73
2021/03/10 09:38:02;;;;;;;35.85;24.20;;;6.40;99.90;;;;;;4918145;29;20230;-72
2021/03/10 09:40:38;;;;;;;32.50;20.77;;;6.50;99.90;;;;;;4918736;29;20230;-72
2021/03/10 09:43:08;;;;;;;18.38;13.95;;;6.60;99.90;;;;;;4918008;29;20688;-72
2021/03/10 09:45:36;;;;;;;20.48;12.85;;;6.70;99.90;;;;;;4918904;29;20223;-72
2021/03/10 09:48:04;;;;;;;27.67;17.48;;;6.80;99.90;;;;;;4918435;29;20319;-72
2021/03/10 09:50:34;;;;;;;22.58;14.70;;;6.90;99.90;;;;;;4918885;29;20314;-72
2021/03/10 09:53:11;;;;;;;19.60;14.93;;;6.90;99.90;;;;;;4918543;29;20599;-73
2021/03/10 09:55:38;;;;;;;23.20;14.20;;;7.00;99.90;;;;;;4918561;29;20610;-73
2021/03/10 09:58:06;;;;;;;24.45;15.85;;;7.00;99.90;;;;;;4918181;29;20337;-73
2021/03/10 10:00:33;;;;;;;20.42;12.05;;;7.10;99.90;;;;;;4918233;29;20635;-72
2021/03/10 10:03:00;;;;;;;20.65;14.00;;;7.10;99.90;;;;;;4917930;29;20210;-72
2021/03/10 10:05:28;;;;;;;19.05;13.43;;;7.00;99.90;;;;;;4918586;29;20214;-73
2021/03/10 10:07:56;;;;;;;20.70;14.65;;;7.00;99.90;;;;;;4918540;29;20214;-73
2021/03/10 10:10:23;;;;;;;27.88;16.50;;;7.00;99.90;;;;;;4917972;29;20210;-72
2021/03/10 10:12:50;;;;;;;27.30;16.88;;;7.00;99.90;;;;;;4918109;29;20677;-72
2021/03/10 10:15:19;;;;;;;24.45;15.52;;;7.00;99.90;;;;;;4917872;29;20578;-72
2021/03/10 10:17:48;;;;;;;23.98;16.42;;;7.00;99.90;;;;;;4918788;29;20730;-74
2021/03/10 10:20:17;;;;;;;25.33;15.95;;;7.00;99.90;;;;;;4918229;29;20579;-73
2021/03/10 10:22:44;;;;;;;25.33;16.08;;;7.00;99.90;;;;;;4918269;29;20214;-71
2021/03/10 10:25:12;;;;;;;28.10;16.17;;;7.00;99.90;;;;;;4916526;29;20368;-71
2021/03/10 10:27:39;;;;;;;25.05;15.43;;;7.00;99.90;;;;;;4917733;29;20214;-74
2021/03/10 10:30:06;;;;;;;30.58;18.42;;;7.20;99.90;;;;;;4917038;29;20752;-72
2021/03/10 10:32:33;;;;;;;29.52;17.38;;;7.20;99.90;;;;;;4918465;29;20294;-73
2021/03/10 10:35:00;;;;;;;29.15;20.25;;;7.20;99.90;;;;;;4914878;29;20207;-74
2021/03/10 10:37:26;;;;;;;28.85;18.63;;;7.30;99.90;;;;;;4909559;29;20223;-72
2021/03/10 10:39:52;;;;;;;32.97;21.48;;;7.30;99.90;;;;;;4918623;29;20262;-73
2021/03/10 10:42:19;;;;;;;27.23;15.57;;;7.30;99.90;;;;;;4921329;29;20298;-72
2021/03/10 10:44:45;;;;;;;25.45;17.77;;;7.20;99.90;;;;;;4913835;29;20615;-75
2021/03/10 10:47:12;;;;;;;21.73;15.65;;;7.20;99.90;;;;;;4906064;29;20202;-73
2021/03/10 10:49:38;;;;;;;24.13;17.35;;;7.20;99.90;;;;;;4921283;29;20538;-74
2021/03/10 10:52:05;;;;;;;24.90;17.40;;;7.30;99.90;;;;;;4921178;29;20224;-73
2021/03/10 10:54:31;;;;;;;28.33;19.13;;;7.30;99.90;;;;;;4915683;29;20203;-73
2021/03/10 10:56:57;;;;;;;23.50;14.73;;;7.20;99.90;;;;;;4913653;29;20223;-74
2021/03/10 10:59:24;;;;;;;29.98;18.90;;;7.20;99.90;;;;;;4921346;29;20234;-73
2021/03/10 11:01:50;;;;;;;31.88;19.17;;;7.20;99.90;;;;;;4922830;29;20238;-72
2021/03/10 11:04:16;;;;;;;36.63;23.80;;;7.30;99.90;;;;;;4920702;29;20211;-73
2021/03/10 11:06:43;;;;;;;33.67;21.65;;;7.40;99.90;;;;;;4913518;29;20265;-72
2021/03/10 11:09:10;;;;;;;34.13;21.50;;;7.50;99.90;;;;;;4910472;29;20240;-73
2021/03/10 11:11:36;;;;;;;33.28;22.35;;;7.60;99.90;;;;;;4909177;29;20235;-72
2021/03/10 11:14:03;;;;;;;29.05;20.35;;;7.60;99.90;;;;;;4927817;29;20211;-72
2021/03/10 11:16:29;;;;;;;28.02;20.02;;;7.70;99.90;;;;;;4927410;29;20230;-73
2021/03/10 11:18:56;;;;;;;23.02;15.68;;;7.90;99.90;;;;;;4930264;29;20304;-73
2021/03/10 11:21:22;;;;;;;20.95;14.85;;;7.90;99.90;;;;;;4928758;29;20598;-73
2021/03/10 11:23:49;;;;;;;24.10;16.65;;;7.80;99.90;;;;;;4911833;29;20212;-73
2021/03/10 11:26:16;;;;;;;23.60;14.68;;;7.80;99.90;;;;;;4909966;29;20215;-73
2021/03/10 11:28:42;;;;;;;23.63;16.13;;;7.80;99.90;;;;;;4910303;29;20211;-73
2021/03/10 11:31:08;;;;;;;25.92;14.93;;;7.80;99.90;;;;;;4917340;29;20222;-71
2021/03/10 11:33:35;;;;;;;22.27;14.35;;;7.90;99.90;;;;;;4921005;29;20206;-72
2021/03/10 11:36:02;;;;;;;23.08;16.10;;;8.00;99.90;;;;;;4911089;29;20215;-74
2021/03/10 11:38:28;;;;;;;20.48;15.15;;;8.10;99.90;;;;;;4923148;29;20207;-73
2021/03/10 11:40:55;;;;;;;21.80;15.50;;;8.00;99.90;;;;;;4924734;29;20234;-74
2021/03/10 11:43:23;;;;;;;20.08;14.95;;;8.10;99.90;;;;;;4922753;29;20222;-74
2021/03/10 11:45:49;;;;;;;23.08;14.75;;;8.10;99.90;;;;;;4927595;29;20210;-73
2021/03/10 11:48:16;;;;;;;17.05;13.32;;;8.10;99.90;;;;;;4909968;29;20585;-72
2021/03/10 11:50:43;;;;;;;20.42;16.85;;;8.20;99.90;;;;;;4899420;29;20231;-73
2021/03/10 11:53:09;;;;;;;20.50;14.68;;;8.30;99.90;;;;;;4906653;29;20211;-73
2021/03/10 11:55:36;;;;;;;19.80;15.30;;;8.20;99.90;;;;;;4920201;29;20210;-74
2021/03/10 11:58:03;;;;;;;28.55;14.95;;;8.20;99.90;;;;;;4920164;29;20286;-74
2021/03/10 12:00:30;;;;;;;22.27;14.70;;;8.10;99.90;;;;;;4923673;29;20237;-73
2021/03/10 12:02:56;;;;;;;23.52;16.02;;;8.00;99.90;;;;;;4916384;29;20218;-73
2021/03/10 12:05:23;;;;;;;20.95;14.27;;;8.00;99.90;;;;;;4913308;29;20210;-74
2021/03/10 12:07:51;;;;;;;20.73;12.88;;;8.00;99.90;;;;;;4924817;29;20234;-74
2021/03/10 12:10:18;;;;;;;22.05;15.20;;;7.90;99.90;;;;;;4922928;29;20209;-74
2021/03/10 12:12:44;;;;;;;21.30;14.48;;;7.80;99.90;;;;;;4906536;29;20211;-74
2021/03/10 12:15:12;;;;;;;15.20;11.73;;;7.80;99.90;;;;;;4911774;29;20653;-75
2021/03/10 12:17:39;;;;;;;20.70;13.95;;;7.90;99.90;;;;;;4925280;29;20245;-74
2021/03/10 12:20:06;;;;;;;20.60;13.18;;;8.00;99.90;;;;;;4923662;29;20317;-75
2021/03/10 12:22:33;;;;;;;21.52;13.52;;;8.00;99.90;;;;;;4920848;29;20226;-74
2021/03/10 12:24:59;;;;;;;19.80;13.00;;;7.90;99.90;;;;;;4925367;29;20230;-74
2021/03/10 12:27:25;;;;;;;20.98;13.90;;;7.80;99.90;;;;;;4911313;29;20218;-74
2021/03/10 12:29:53;;;;;;;20.27;13.55;;;7.70;99.90;;;;;;4908209;29;20211;-74
2021/03/10 12:32:19;;;;;;;21.83;14.80;;;7.70;99.90;;;;;;4926160;29;20261;-74
2021/03/10 12:34:46;;;;;;;20.70;13.57;;;7.70;99.90;;;;;;4918298;29;20249;-74
2021/03/10 12:37:13;;;;;;;19.73;14.02;;;7.70;99.90;;;;;;4923698;29;20290;-74
2021/03/10 12:39:39;;;;;;;19.67;13.38;;;7.90;99.90;;;;;;4926470;29;20210;-74
2021/03/10 12:42:07;;;;;;;19.60;13.93;;;7.90;99.90;;;;;;4927580;29;20226;-74
2021/03/10 12:44:33;;;;;;;19.73;13.23;;;8.00;99.90;;;;;;4924928;29;20211;-75
2021/03/10 12:46:59;;;;;;;19.05;13.27;;;8.10;99.90;;;;;;4925163;29;20214;-75
2021/03/10 12:49:25;;;;;;;22.98;14.10;;;8.10;99.90;;;;;;4925508;29;20242;-75
2021/03/10 12:51:52;;;;;;;21.20;14.60;;;8.00;99.90;;;;;;4924955;29;20309;-76
2021/03/10 12:54:19;;;;;;;21.35;14.95;;;8.00;99.90;;;;;;4926935;29;20227;-75
2021/03/10 12:56:45;;;;;;;24.25;14.55;;;8.10;99.90;;;;;;4927543;29;20230;-75
2021/03/10 12:59:12;;;;;;;19.05;13.90;;;8.20;99.90;;;;;;4929058;29;20203;-76
2021/03/10 13:01:38;;;;;;;21.83;14.50;;;8.20;99.90;;;;;;4927324;29;20230;-74
2021/03/10 13:04:05;;;;;;;21.25;14.02;;;8.20;99.90;;;;;;4933287;29;20278;-75
2021/03/10 13:06:31;;;;;;;32.53;22.35;;;8.30;99.90;;;;;;4927944;29;20199;-75
2021/03/10 13:08:58;;;;;;;31.47;21.00;;;8.40;99.90;;;;;;4927872;29;20476;-76
2021/03/10 13:11:26;;;;;;;21.00;14.95;;;8.50;99.90;;;;;;4929511;29;20511;-75
2021/03/10 13:13:53;;;;;;;23.77;16.10;;;8.50;99.90;;;;;;4914474;29;20221;-75
2021/03/10 13:16:19;;;;;;;25.00;18.90;;;8.40;99.90;;;;;;4915597;29;20207;-72
2021/03/10 13:18:45;;;;;;;23.80;17.25;;;8.40;99.90;;;;;;4928862;29;20238;-76
2021/03/10 13:21:11;;;;;;;23.92;16.65;;;8.50;99.90;;;;;;4919416;29;20237;-76
2021/03/10 13:23:38;;;;;;;20.80;14.30;;;8.60;99.90;;;;;;4909706;29;20219;-75
2021/03/10 13:26:05;;;;;;;20.23;14.50;;;8.60;99.90;;;;;;4913952;29;20207;-75
2021/03/10 13:28:32;;;;;;;22.08;14.50;;;8.60;99.90;;;;;;4911013;29;20259;-75
2021/03/10 13:30:58;;;;;;;20.17;14.30;;;8.50;99.90;;;;;;4910975;29;20233;-75
2021/03/10 13:33:24;;;;;;;17.73;12.80;;;8.50;99.90;;;;;;4928843;29;20211;-76
2021/03/10 13:35:51;;;;;;;22.05;14.95;;;8.60;99.90;;;;;;4915461;29;20208;-75
2021/03/10 13:38:17;;;;;;;24.90;17.75;;;8.60;99.90;;;;;;4909126;29;20246;-75
2021/03/10 13:40:43;;;;;;;19.73;13.73;;;8.60;99.90;;;;;;4921253;29;20250;-75
2021/03/10 13:43:10;;;;;;;20.52;13.88;;;8.50;99.90;;;;;;4927295;29;20207;-76
2021/03/10 13:45:37;;;;;;;19.77;13.95;;;8.60;99.90;;;;;;4917255;29;20233;-75
2021/03/10 13:48:04;;;;;;;20.92;14.57;;;8.80;99.90;;;;;;4915391;29;20199;-76
2021/03/10 13:50:31;;;;;;;17.85;13.13;;;8.80;99.90;;;;;;4928997;29;20230;-75
2021/03/10 13:52:57;;;;;;;21.92;14.52;;;8.80;99.90;;;;;;4927972;29;20352;-74
2021/03/10 13:55:23;;;;;;;18.67;10.90;;;8.80;99.90;;;;;;4929607;29;20214;-75
2021/03/10 13:57:50;;;;;;;22.20;13.98;;;8.70;99.90;;;;;;4925164;29;20274;-73
2021/03/10 14:00:18;;;;;;;21.67;13.07;;;8.80;99.90;;;;;;4910537;29;20215;-75
2021/03/10 14:02:45;;;;;;;20.52;13.55;;;8.80;99.90;;;;;;4909635;29;20204;-75
2021/03/10 14:05:11;;;;;;;18.20;12.98;;;8.80;99.90;;;;;;4914494;29;20516;-75
2021/03/10 14:07:37;;;;;;;18.85;12.50;;;8.80;99.90;;;;;;4927134;29;20278;-75
2021/03/10 14:10:04;;;;;;;17.58;12.73;;;8.80;99.90;;;;;;4926930;29;20214;-74
2021/03/10 14:12:30;;;;;;;21.33;13.48;;;8.80;99.90;;;;;;4926021;29;20231;-75
2021/03/10 14:14:56;;;;;;;18.60;13.05;;;8.80;99.90;;;;;;4908973;29;20252;-75
2021/03/10 14:17:24;;;;;;;17.58;13.25;;;8.80;99.90;;;;;;4908863;29;20227;-73
2021/03/10 14:19:50;;;;;;;16.63;12.63;;;8.80;99.90;;;;;;4905135;29;20270;-74
2021/03/10 14:22:16;;;;;;;15.48;12.38;;;8.80;99.90;;;;;;4924425;29;20230;-74
2021/03/10 14:24:42;;;;;;;19.60;14.52;;;8.80;99.90;;;;;;4908543;29;20211;-73
2021/03/10 14:27:09;;;;;;;19.00;13.52;;;8.70;99.90;;;;;;4905442;29;20283;-75
2021/03/10 14:29:35;;;;;;;21.10;13.55;;;8.60;99.90;;;;;;4923679;29;20211;-74
2021/03/10 14:32:01;;;;;;;14.95;11.60;;;8.60;99.90;;;;;;4910663;29;20223;-72
2021/03/10 14:34:28;;;;;;;15.55;10.73;;;8.50;99.90;;;;;;4912917;29;20203;-74
2021/03/10 14:36:54;;;;;;;17.75;12.07;;;8.50;99.90;;;;;;4923892;29;20230;-73
2021/03/10 14:39:21;;;;;;;16.58;12.57;;;8.40;99.90;;;;;;4925773;29;20207;-75
2021/03/10 14:41:49;;;;;;;14.93;11.73;;;8.30;99.90;;;;;;4913997;29;20242;-74
2021/03/10 14:44:15;;;;;;;16.17;12.23;;;8.30;99.90;;;;;;4904535;29;20254;-74
2021/03/10 14:46:41;;;;;;;16.38;12.25;;;8.30;99.90;;;;;;4917117;29;20206;-75
2021/03/10 14:49:07;;;;;;;17.73;13.55;;;8.30;99.90;;;;;;4927234;29;20214;-75
2021/03/10 14:51:35;;;;;;;15.38;12.75;;;8.20;99.90;;;;;;4925450;29;20676;-75
2021/03/10 14:54:01;;;;;;;17.92;13.32;;;8.20;99.90;;;;;;4925034;29;20229;-74
2021/03/10 14:56:28;;;;;;;15.55;12.30;;;8.20;99.90;;;;;;4919045;29;20503;-74
2021/03/10 14:58:54;;;;;;;18.80;13.13;;;8.20;99.90;;;;;;4912986;29;20281;-75
2021/03/10 15:01:20;;;;;;;17.52;13.07;;;8.20;99.90;;;;;;4926731;29;20238;-75
2021/03/10 15:03:46;;;;;;;15.40;11.93;;;8.10;99.90;;;;;;4922471;29;20214;-74
2021/03/10 15:06:13;;;;;;;16.45;12.57;;;8.10;99.90;;;;;;4917147;29;20207;-75
2021/03/10 15:08:40;;;;;;;14.75;12.25;;;8.10;99.90;;;;;;4924312;29;20209;-75
2021/03/10 15:11:07;;;;;;;16.30;11.27;;;8.10;99.90;;;;;;4927151;29;20741;-74
2021/03/10 15:13:33;;;;;;;18.23;13.43;;;8.00;99.90;;;;;;4919192;29;20259;-74
2021/03/10 15:15:59;;;;;;;16.48;12.25;;;8.00;99.90;;;;;;4908533;29;20222;-74
2021/03/10 15:18:27;;;;;;;13.07;11.68;;;8.00;99.90;;;;;;4912312;29;20218;-75
2021/03/10 15:20:53;;;;;;;16.58;12.25;;;8.00;99.90;;;;;;4923728;29;20222;-74
2021/03/10 15:23:20;;;;;;;18.17;13.15;;;7.90;99.90;;;;;;4921443;29;20306;-73
2021/03/10 15:25:48;;;;;;;18.35;13.35;;;7.90;99.90;;;;;;4909885;29;20251;-73
2021/03/10 15:28:14;;;;;;;18.23;13.23;;;7.90;99.90;;;;;;4904919;29;20203;-72
2021/03/10 15:30:40;;;;;;;19.92;13.63;;;7.90;99.90;;;;;;4911892;29;20286;-68
2021/03/10 15:33:07;;;;;;;17.55;12.43;;;7.90;99.90;;;;;;4922282;29;20225;-73
2021/03/10 15:35:33;;;;;;;15.88;11.85;;;8.00;99.90;;;;;;4909735;29;20211;-74
2021/03/10 15:37:59;;;;;;;13.93;11.55;;;7.90;99.90;;;;;;4924839;29;20230;-73
2021/03/10 15:40:25;;;;;;;15.20;12.10;;;7.80;99.90;;;;;;4917037;29;20214;-72
2021/03/10 15:42:52;;;;;;;16.83;12.00;;;7.80;99.90;;;;;;4916522;29;20226;-69
2021/03/10 15:45:19;;;;;;;15.57;12.23;;;7.80;99.90;;;;;;4916607;29;20247;-71
2021/03/10 15:47:46;;;;;;;14.30;12.52;;;7.80;99.90;;;;;;4915188;29;20214;-72
2021/03/10 15:50:14;;;;;;;15.80;12.48;;;7.70;99.90;;;;;;4915806;29;20221;-72
2021/03/10 15:52:41;;;;;;;15.52;12.55;;;7.70;99.90;;;;;;4914912;29;20202;-71
2021/03/10 15:55:08;;;;;;;16.92;13.15;;;7.70;99.90;;;;;;4916015;29;20219;-71
2021/03/10 15:57:35;;;;;;;17.10;13.10;;;7.70;99.90;;;;;;4915790;29;20697;-72
2021/03/10 16:00:02;;;;;;;17.75;13.32;;;7.80;99.90;;;;;;4916221;29;20237;-72
2021/03/10 16:02:29;;;;;;;18.30;12.25;;;7.80;99.90;;;;;;4914750;29;20325;-73
2021/03/10 16:04:55;;;;;;;15.15;11.90;;;7.70;99.90;;;;;;4911399;29;20222;-73
2021/03/10 16:07:21;;;;;;;17.95;12.65;;;7.70;99.90;;;;;;4913182;29;20210;-73
2021/03/10 16:09:48;;;;;;;17.10;13.05;;;7.70;99.90;;;;;;4915129;29;20210;-72
2021/03/10 16:12:15;;;;;;;18.35;13.63;;;7.70;99.90;;;;;;4915313;29;20809;-72
2021/03/10 16:14:41;;;;;;;16.60;13.02;;;7.60;99.90;;;;;;4915841;29;20210;-73
2021/03/10 16:17:08;;;;;;;18.13;13.07;;;7.60;99.90;;;;;;4915170;29;20231;-73
2021/03/10 16:19:36;;;;;;;18.40;12.75;;;7.60;99.90;;;;;;4916505;29;20214;-73
2021/03/10 16:22:03;;;;;;;16.73;13.05;;;7.60;99.90;;;;;;4913690;29;20238;-74
2021/03/10 16:24:30;;;;;;;20.38;13.43;;;7.50;99.90;;;;;;4901767;29;20198;-74
2021/03/10 16:26:57;;;;;;;16.05;11.68;;;7.50;99.90;;;;;;4915683;29;20298;-73
2021/03/10 16:29:23;;;;;;;21.65;14.02;;;7.50;99.90;;;;;;4913474;29;20548;-75
2021/03/10 16:31:51;;;;;;;19.15;14.18;;;7.40;99.90;;;;;;4915356;29;20312;-76
2021/03/10 16:34:19;;;;;;;15.70;13.45;;;7.40;99.90;;;;;;4919299;29;20221;-75
2021/03/10 16:36:45;;;;;;;19.83;13.60;;;7.40;99.90;;;;;;4919139;29;20203;-75
2021/03/10 16:39:12;;;;;;;18.40;12.70;;;7.30;99.90;;;;;;4924035;29;20235;-74
2021/03/10 16:41:38;;;;;;;19.83;14.00;;;7.30;99.90;;;;;;4920761;29;20234;-74
2021/03/10 16:44:05;;;;;;;21.35;14.25;;;7.40;99.90;;;;;;4923903;29;20247;-74
2021/03/10 16:46:33;;;;;;;26.17;15.75;;;7.30;99.90;;;;;;4927450;29;20271;-74
2021/03/10 16:48:59;;;;;;;19.92;12.95;;;7.30;99.90;;;;;;4914760;29;20250;-73
2021/03/10 16:51:27;;;;;;;22.80;14.05;;;7.20;99.90;;;;;;4914916;29;20227;-75
2021/03/10 16:53:53;;;;;;;20.58;14.02;;;7.30;99.90;;;;;;4924517;29;20206;-75
2021/03/10 16:56:19;;;;;;;19.52;14.48;;;7.20;99.90;;;;;;4924391;29;20213;-74
2021/03/10 16:58:45;;;;;;;19.65;14.10;;;7.20;99.90;;;;;;4922076;29;20226;-75
2021/03/10 17:01:11;;;;;;;18.92;15.18;;;7.20;99.90;;;;;;4921663;29;20313;-75
2021/03/10 17:03:38;;;;;;;19.08;11.85;;;7.20;99.90;;;;;;4920380;29;20207;-73
2021/03/10 17:06:04;;;;;;;21.77;15.07;;;7.20;99.90;;;;;;4921883;29;20279;-74
2021/03/10 17:08:31;;;;;;;18.38;13.82;;;7.20;99.90;;;;;;4921939;29;20202;-74
2021/03/10 17:10:57;;;;;;;21.70;14.90;;;7.10;99.90;;;;;;4921663;29;20227;-74
2021/03/10 17:13:24;;;;;;;24.00;14.93;;;7.10;99.90;;;;;;4921042;29;20206;-75
2021/03/10 17:15:50;;;;;;;37.58;23.48;;;7.10;99.90;;;;;;4922098;29;20744;-74
2021/03/10 17:18:17;;;;;;;32.65;21.67;;;7.10;99.90;;;;;;4915967;29;20239;-74
2021/03/10 17:20:43;;;;;;;28.98;18.30;;;7.10;99.90;;;;;;4913990;29;20282;-73
2021/03/10 17:23:10;;;;;;;25.10;18.08;;;7.10;99.90;;;;;;4919092;29;20278;-73
2021/03/10 17:25:37;;;;;;;24.48;16.40;;;7.10;99.90;;;;;;4911849;29;20758;-73
2021/03/10 17:28:04;;;;;;;26.58;18.88;;;7.00;99.90;;;;;;4899193;29;20666;-72
2021/03/10 17:30:30;;;;;;;22.85;14.90;;;7.00;99.90;;;;;;4911465;29;20233;-73
2021/03/10 17:32:57;;;;;;;40.25;21.33;;;7.00;99.90;;;;;;4915249;29;20215;-72
2021/03/10 17:35:23;;;;;;;29.00;17.58;;;7.00;99.90;;;;;;4915006;29;20302;-71
2021/03/10 17:37:49;;;;;;;36.70;20.30;;;7.00;99.90;;;;;;4914972;29;20222;-72
2021/03/10 17:40:15;;;;;;;27.55;17.52;;;7.00;99.90;;;;;;4916783;29;20274;-72